Impacts TAF Board
For situational awareness. Not to be used for flight planning purposes.
IDs:

KLAS - Las Vegas/McCarran I, NV, US

Issued at 1120 UTC 23 Mar 2019
Updated at 1320 UTC 23 Mar 2019
Potential Impact None Slight Moderate High
Time1256Z 23/14Z 23/15Z 23/16Z 23/17Z 23/18Z 23/19Z 23/20Z 23/21Z 23/22Z 23/23Z 24/00Z 24/01Z 24/02Z>>
Type OBS PRVL PRVL PRVL PRVL PRVL PRVL PRVL PRVL PRVL PRVL PRVL PRVL PRVL
VIS 10 >6 >6 >6 >6 >6 >6 >6 >6 >6 >6 >6 >6 >6
CIG 220 200 200 200 200 200 -- -- -- -- -- -- -- --
Cover BKN BKN BKN BKN BKN BKN SCT SCT SCT SCT SCT SCT SCT SCT
FltCat VFR VFR VFR VFR VFR VFR VFR VFR VFR VFR VFR VFR VFR VFR
WX -- -- -- -- -- -- -- -- -- -- -- -- -- --
WDir VRB 210 210 210 210 210 210 210 210 210 210 210 210 210
WSpd 0 6 6 6 6 6 12 12 12 12 12 12 12 12
WGst -- -- -- -- -- -- 22 22 22 22 22 22 22 22
Raw TAF
KLAS 231120Z 2312/2418 21006KT P6SM FEW100 BKN200
  FM231900 21012G22KT P6SM FEW100 SCT200
  FM240400 22011KT P6SM FEW100


Raw METAR
KLAS 231256Z 00000KT 10SM FEW100 BKN220 12/01 A3004 RMK AO2 SLP161 T01220011
KLAS 231156Z 17004KT 10SM FEW085 BKN220 13/01 A3003 RMK AO2 SLP159 T01280006 10156 20128 56005
KLAS 231056Z 00000KT 10SM FEW085 OVC220 14/01 A3004 RMK AO2 SLP160 T01390006

METAR Board
Radar Display
Forecast Discussion
For situational awareness. Not to be used for flight planning purposes.